Time;durP1;ratioP1;P1;durP2;ratioP2;P2;SDS_P1;SDS_P2;PMS_P1;PMS_P2;Temp;Humidity;BMP_temperature;BMP_pressure;BME280_temperature;BME280_humidity;BME280_pressure;Samples;Min_cycle;Max_cycle;Signal;HPM_P1;HPM_P2
2024/01/23 00:02:13;;;;;;;14.63;6.68;;;;;;;-14.18;95.23;100591.66;6191363;23;20047;-57
2024/01/23 00:04:44;;;;;;;14.35;6.30;;;;;;;-14.14;94.87;100548.50;6206574;23;20020;-58
2024/01/23 00:07:16;;;;;;;14.30;5.32;;;;;;;-14.05;94.68;100574.41;6191731;23;20445;-58
2024/01/23 00:09:47;;;;;;;16.48;6.03;;;;;;;-14.04;94.65;100581.16;6206255;23;20027;-59
2024/01/23 00:12:17;;;;;;;11.25;5.82;;;;;;;-14.01;94.44;100581.41;6191380;23;20461;-58
2024/01/23 00:14:48;;;;;;;9.43;5.20;;;;;;;-14.05;94.96;100564.34;6204845;23;20031;-59
2024/01/23 00:17:18;;;;;;;12.18;5.57;;;;;;;-14.13;95.02;100566.19;6191341;23;20020;-59
2024/01/23 00:19:55;;;;;;;24.17;6.75;;;;;;;-14.69;90.38;100558.81;6206371;23;20020;-59
2024/01/23 00:22:27;;;;;;;27.17;6.63;;;;;;;-15.31;91.33;100573.38;6192233;23;20020;-58
2024/01/23 00:24:57;;;;;;;7.28;5.43;;;;;;;-15.57;92.07;100562.59;6205650;23;20062;-58
2024/01/23 00:27:28;;;;;;;7.38;5.13;;;;;;;-15.77;92.71;100549.22;6190815;23;20147;-58
2024/01/23 00:29:58;;;;;;;14.60;6.82;;;;;;;-15.88;93.12;100569.84;6205581;23;20028;-58
2024/01/23 00:32:30;;;;;;;7.40;5.05;;;;;;;-15.86;93.14;100568.38;6191315;23;20020;-57
2024/01/23 00:35:01;;;;;;;12.23;6.82;;;;;;;-15.93;93.02;100581.06;6205919;23;20054;-59
2024/01/23 00:37:33;;;;;;;11.52;6.93;;;;;;;-15.93;93.23;100556.03;6191856;23;20025;-58
2024/01/23 00:40:04;;;;;;;14.05;6.32;;;;;;;-15.98;93.46;100552.22;6205369;23;20090;-57
2024/01/23 00:42:35;;;;;;;8.93;6.32;;;;;;;-15.97;93.67;100556.47;6184656;23;20523;-57
2024/01/23 00:45:06;;;;;;;11.57;6.32;;;;;;;-16.03;93.01;100558.44;6202565;23;20340;-60
2024/01/23 00:47:36;;;;;;;15.68;6.57;;;;;;;-15.98;93.33;100553.09;6186747;23;20320;-60
2024/01/23 00:50:08;;;;;;;11.63;6.25;;;;;;;-16.08;92.82;100546.34;6203529;23;20031;-58
2024/01/23 00:52:40;;;;;;;26.13;7.32;;;;;;;-16.11;92.60;100552.72;6187758;23;20016;-60
2024/01/23 00:55:11;;;;;;;11.60;6.28;;;;;;;-16.08;92.99;100571.38;6203521;23;20016;-61
2024/01/23 00:57:41;;;;;;;15.73;7.45;;;;;;;-16.10;92.73;100550.38;6187675;23;20032;-59
2024/01/23 01:00:13;;;;;;;10.82;6.35;;;;;;;-16.13;92.42;100547.56;6198013;23;20631;-59
2024/01/23 01:02:43;;;;;;;9.50;6.75;;;;;;;-16.15;92.53;100548.16;6202354;23;20210;-59
2024/01/23 01:05:14;;;;;;;14.07;6.63;;;;;;;-16.19;92.37;100538.63;6187388;23;20024;-60
2024/01/23 01:07:47;;;;;;;13.38;6.97;;;;;;;-16.18;92.41;100532.84;6203661;23;20052;-58
2024/01/23 01:10:17;;;;;;;7.88;5.85;;;;;;;-16.20;92.11;100487.66;6188437;23;20047;-61
2024/01/23 01:12:48;;;;;;;13.25;7.18;;;;;;;-16.19;92.50;100516.97;6203379;23;20050;-60
2024/01/23 01:15:18;;;;;;;18.27;7.50;;;;;;;-16.15;92.53;100526.50;6188941;23;20591;-59
2024/01/23 01:17:48;;;;;;;12.00;7.60;;;;;;;-16.06;92.65;100508.09;6203365;23;20020;-61
2024/01/23 01:20:19;;;;;;;13.35;7.30;;;;;;;-16.09;92.23;100499.56;6188689;23;20020;-59
2024/01/23 01:22:51;;;;;;;14.30;7.70;;;;;;;-16.04;92.35;100511.63;6203335;23;20113;-61
2024/01/23 01:25:21;;;;;;;18.80;6.82;;;;;;;-16.09;92.46;100489.53;6187918;23;20518;-61
2024/01/23 01:27:51;;;;;;;16.95;7.38;;;;;;;-16.02;92.59;100512.63;6203504;23;20023;-59
2024/01/23 01:30:26;;;;;;;14.10;7.18;;;;;;;-16.00;92.47;100493.63;6188152;23;20027;-60
2024/01/23 01:32:57;;;;;;;14.13;6.70;;;;;;;-15.92;92.61;100485.22;6202383;23;20028;-60
2024/01/23 01:35:28;;;;;;;10.35;6.40;;;;;;;-15.84;92.42;100471.75;6188174;23;20055;-58
2024/01/23 01:37:59;;;;;;;13.20;6.50;;;;;;;-15.83;92.30;100445.97;6202772;23;20103;-59
2024/01/23 01:40:30;;;;;;;10.48;6.35;;;;;;;-15.77;92.40;100441.53;6188026;23;20028;-61
2024/01/23 01:43:00;;;;;;;11.18;6.40;;;;;;;-15.74;91.68;100451.81;6202282;23;20368;-59
2024/01/23 01:45:31;;;;;;;25.83;9.38;;;;;;;-15.70;91.59;100441.34;6188228;23;20752;-60
2024/01/23 01:48:01;;;;;;;10.10;5.97;;;;;;;-15.78;91.52;100426.34;6201515;23;20027;-59
2024/01/23 01:50:32;;;;;;;17.65;7.90;;;;;;;-15.75;91.41;100425.00;6186051;23;20529;-58
2024/01/23 01:53:04;;;;;;;8.77;6.05;;;;;;;-15.84;91.22;100401.66;6202296;23;20042;-60
2024/01/23 01:55:35;;;;;;;21.92;8.55;;;;;;;-15.80;91.70;100413.69;6187770;23;20074;-62
2024/01/23 01:58:06;;;;;;;14.48;6.95;;;;;;;-15.79;91.35;100410.47;6201628;23;20036;-60
2024/01/23 02:00:36;;;;;;;16.92;7.72;;;;;;;-15.77;91.62;100424.00;6187574;23;20019;-61
2024/01/23 02:03:07;;;;;;;24.02;7.43;;;;;;;-15.75;91.59;100402.47;6202803;23;20453;-58
2024/01/23 02:05:38;;;;;;;12.43;6.88;;;;;;;-15.81;91.57;100394.41;6186942;23;20023;-59
2024/01/23 02:08:10;;;;;;;16.63;7.38;;;;;;;-15.74;91.50;100393.34;6203055;23;20024;-60
2024/01/23 02:10:43;;;;;;;11.80;6.95;;;;;;;-15.69;91.68;100392.97;6188370;23;20024;-59
2024/01/23 02:13:14;;;;;;;9.23;6.43;;;;;;;-15.72;91.59;100392.75;6187578;23;20504;-60
2024/01/23 02:15:44;;;;;;;20.85;6.80;;;;;;;-15.74;91.46;100399.22;6202632;23;20547;-59
2024/01/23 02:18:15;;;;;;;20.20;8.05;;;;;;;-15.69;91.83;100370.44;6187746;23;20030;-60
2024/01/23 02:20:46;;;;;;;19.05;7.55;;;;;;;-15.71;91.75;100374.47;6202792;23;20016;-61
2024/01/23 02:23:19;;;;;;;29.98;8.07;;;;;;;-15.88;91.73;100344.53;6187629;23;20028;-60
2024/01/23 02:25:51;;;;;;;25.23;8.50;;;;;;;-15.67;91.71;100356.44;6203012;23;20024;-59
2024/01/23 02:28:21;;;;;;;20.30;8.48;;;;;;;-15.73;91.72;100333.38;6188281;23;20606;-59
2024/01/23 02:30:52;;;;;;;23.48;7.55;;;;;;;-15.74;92.44;100354.16;6202550;23;20016;-60
2024/01/23 02:33:22;;;;;;;28.48;8.25;;;;;;;-15.70;92.20;100336.16;6188193;23;20017;-59
2024/01/23 02:35:53;;;;;;;18.55;7.75;;;;;;;-15.67;92.15;100340.53;6202751;23;20090;-59
2024/01/23 02:38:23;;;;;;;20.90;7.75;;;;;;;-15.70;92.06;100320.25;6188034;23;20079;-59
2024/01/23 02:40:56;;;;;;;19.25;7.82;;;;;;;-15.70;92.09;100331.16;6202913;23;20020;-60
2024/01/23 02:43:26;;;;;;;20.08;7.45;;;;;;;-15.66;92.09;100303.06;6188152;23;20329;-59
2024/01/23 02:45:57;;;;;;;21.67;7.72;;;;;;;-15.71;92.07;100304.34;6202911;23;20020;-60
2024/01/23 02:48:27;;;;;;;21.88;8.70;;;;;;;-15.74;92.15;100294.06;6187142;23;20078;-58
2024/01/23 02:50:58;;;;;;;22.90;9.13;;;;;;;-15.75;92.48;100297.28;6202719;23;20028;-59
2024/01/23 02:53:28;;;;;;;15.80;8.55;;;;;;;-15.75;92.43;100322.34;6187339;23;20024;-58
2024/01/23 02:56:00;;;;;;;21.88;8.05;;;;;;;-15.75;92.77;100314.81;6202157;23;20024;-60
2024/01/23 02:58:31;;;;;;;25.92;9.48;;;;;;;-15.84;92.70;100258.94;6187999;23;20032;-58
2024/01/23 03:01:01;;;;;;;20.48;8.05;;;;;;;-15.77;93.13;100288.78;6202441;23;20097;-59
2024/01/23 03:03:31;;;;;;;28.63;9.15;;;;;;;-15.79;93.24;100290.28;6187085;23;20736;-59
2024/01/23 03:06:02;;;;;;;23.88;9.07;;;;;;;-15.76;93.03;100289.66;6198573;23;20070;-57
2024/01/23 03:08:32;;;;;;;22.98;9.63;;;;;;;-15.79;93.06;100255.22;6186889;23;20085;-60
2024/01/23 03:11:05;;;;;;;18.45;8.18;;;;;;;-15.71;93.31;100259.25;6202206;23;20218;-59
2024/01/23 03:13:35;;;;;;;21.85;8.48;;;;;;;-15.69;93.44;100252.75;6187792;23;20035;-59
2024/01/23 03:16:06;;;;;;;24.38;8.68;;;;;;;-15.69;93.62;100247.72;6203443;23;20019;-59
2024/01/23 03:18:37;;;;;;;25.52;8.10;;;;;;;-15.63;93.37;100226.47;6187473;23;20047;-59
2024/01/23 03:21:07;;;;;;;32.17;8.88;;;;;;;-15.66;93.62;100227.94;6203342;23;20111;-58
2024/01/23 03:23:38;;;;;;;20.92;8.38;;;;;;;-15.63;93.66;100241.50;6188552;23;20082;-60
2024/01/23 03:26:10;;;;;;;20.98;8.98;;;;;;;-15.62;93.49;100205.66;6203577;23;20086;-59
2024/01/23 03:28:41;;;;;;;22.80;8.13;;;;;;;-15.67;93.41;100211.19;6189434;23;20356;-60
2024/01/23 03:31:11;;;;;;;25.20;10.02;;;;;;;-15.66;93.64;100217.94;6202591;23;20392;-59
2024/01/23 03:33:42;;;;;;;36.92;11.88;;;;;;;-15.65;93.68;100219.72;6204224;23;20020;-60
2024/01/23 03:36:12;;;;;;;21.10;8.00;;;;;;;-15.61;93.95;100194.91;6194957;23;20034;-59
2024/01/23 03:38:43;;;;;;;23.67;9.27;;;;;;;-15.58;93.84;100210.19;6204456;23;20685;-60
2024/01/23 03:41:15;;;;;;;33.75;9.70;;;;;;;-15.53;93.93;100188.94;6189431;23;20024;-58
2024/01/23 03:43:49;;;;;;;31.85;8.45;;;;;;;-15.60;94.36;100164.09;6203737;23;20095;-60
2024/01/23 03:46:20;;;;;;;28.27;9.50;;;;;;;-15.77;93.93;100143.56;6189545;23;20111;-59
2024/01/23 03:48:50;;;;;;;35.13;10.48;;;;;;;-15.54;93.96;100132.09;6203960;23;20539;-60
2024/01/23 03:51:21;;;;;;;23.80;8.15;;;;;;;-15.47;94.05;100146.88;6189238;23;20024;-60
2024/01/23 03:53:51;;;;;;;31.20;10.43;;;;;;;-15.49;94.50;100175.94;6204116;23;20020;-59
2024/01/23 03:56:24;;;;;;;35.53;8.90;;;;;;;-15.79;94.32;100095.00;6189669;23;20775;-61
2024/01/23 03:58:54;;;;;;;22.27;9.88;;;;;;;-15.45;94.70;100167.91;6204487;23;20077;-58
2024/01/23 04:01:24;;;;;;;30.23;9.25;;;;;;;-15.42;94.79;100163.19;6190107;23;20034;-60
2024/01/23 04:03:55;;;;;;;19.83;9.02;;;;;;;-15.32;94.76;100150.66;6204073;23;20103;-60
2024/01/23 04:06:25;;;;;;;20.90;7.80;;;;;;;-15.30;94.45;100149.16;6189265;23;20778;-61
2024/01/23 04:08:56;;;;;;;38.47;9.55;;;;;;;-15.30;94.54;100126.63;6204025;23;20024;-58
2024/01/23 04:11:29;;;;;;;22.98;8.55;;;;;;;-15.25;94.83;100107.81;6188694;23;20024;-57
2024/01/23 04:13:59;;;;;;;19.63;8.60;;;;;;;-15.24;94.61;100119.59;6204014;23;20020;-60
2024/01/23 04:16:29;;;;;;;27.48;9.00;;;;;;;-15.19;94.87;100117.47;6189750;23;20314;-59
2024/01/23 04:19:00;;;;;;;17.42;7.72;;;;;;;-15.17;94.92;100110.06;6203295;23;20051;-61
2024/01/23 04:21:30;;;;;;;23.15;9.23;;;;;;;-15.19;94.88;100101.56;6188493;23;20035;-58
2024/01/23 04:24:01;;;;;;;20.85;8.05;;;;;;;-15.07;94.90;100092.53;6204085;23;20637;-60
2024/01/23 04:26:34;;;;;;;25.70;9.48;;;;;;;-15.34;94.61;100066.97;6189356;23;20033;-59
2024/01/23 04:29:07;;;;;;;20.17;8.07;;;;;;;-15.00;94.58;100115.72;6204017;23;20406;-61
2024/01/23 04:31:37;;;;;;;19.10;7.60;;;;;;;-14.97;94.69;100120.13;6189482;23;20031;-58
2024/01/23 04:34:07;;;;;;;19.55;8.07;;;;;;;-15.00;95.14;100129.88;6205156;23;20361;-58
2024/01/23 04:36:38;;;;;;;26.77;8.85;;;;;;;-14.92;95.40;100103.81;6190722;23;20436;-58
2024/01/23 04:39:09;;;;;;;25.75;8.38;;;;;;;-14.88;95.24;100110.81;6206119;23;20020;-58
2024/01/23 04:41:41;;;;;;;22.98;9.65;;;;;;;-14.95;95.41;100088.50;6190779;23;20031;-58
2024/01/23 04:44:12;;;;;;;24.35;9.63;;;;;;;-14.83;95.58;100098.66;6201116;23;20054;-57
2024/01/23 04:46:42;;;;;;;16.95;8.30;;;;;;;-14.78;95.47;100107.44;6206651;23;20110;-60
2024/01/23 04:49:12;;;;;;;17.48;8.63;;;;;;;-14.78;95.56;100095.75;6195900;23;20091;-57
2024/01/23 04:51:43;;;;;;;39.03;10.52;;;;;;;-14.80;95.91;100079.72;6206032;23;20038;-58
2024/01/23 04:54:14;;;;;;;24.63;10.15;;;;;;;-14.74;96.05;100078.47;6187407;23;20408;-58
2024/01/23 04:56:46;;;;;;;23.05;8.88;;;;;;;-14.73;96.33;100070.19;6202332;23;20022;-59
2024/01/23 04:59:16;;;;;;;31.80;9.00;;;;;;;-14.68;96.41;100073.94;6188447;23;20020;-58
2024/01/23 05:01:46;;;;;;;25.30;8.55;;;;;;;-14.63;96.69;100075.16;6204447;23;20056;-59
2024/01/23 05:04:17;;;;;;;34.88;10.65;;;;;;;-14.64;96.89;100071.78;6188543;23;20471;-57
2024/01/23 05:06:48;;;;;;;18.55;7.72;;;;;;;-14.59;96.91;100049.59;6203700;23;20020;-60
2024/01/23 05:09:19;;;;;;;27.00;8.95;;;;;;;-14.53;97.23;100044.16;6188249;23;20093;-60
2024/01/23 05:11:53;;;;;;;21.27;9.00;;;;;;;-14.46;97.08;100052.25;6203286;23;20093;-60
2024/01/23 05:14:23;;;;;;;18.50;8.05;;;;;;;-14.38;97.25;100041.19;6188692;23;20065;-60
2024/01/23 05:16:54;;;;;;;19.70;8.23;;;;;;;-14.38;97.25;100021.09;6203424;23;20020;-58
2024/01/23 05:19:25;;;;;;;21.83;9.23;;;;;;;-14.34;97.11;100023.13;6189352;23;20036;-59
2024/01/23 05:21:55;;;;;;;26.73;8.65;;;;;;;-14.31;97.46;100016.59;6203519;23;20031;-58
2024/01/23 05:24:27;;;;;;;24.77;9.52;;;;;;;-14.27;97.21;100016.06;6188705;23;20448;-60
2024/01/23 05:26:59;;;;;;;22.00;7.25;;;;;;;-14.24;97.25;100014.66;6203586;23;20020;-58
2024/01/23 05:29:30;;;;;;;27.42;9.90;;;;;;;-14.19;97.48;100003.34;6188451;23;20031;-59
2024/01/23 05:32:00;;;;;;;19.83;7.70;;;;;;;-14.11;97.78;100016.47;6202989;23;20086;-60
2024/01/23 05:34:31;;;;;;;27.58;8.70;;;;;;;-14.16;97.81;100012.75;6189020;23;20127;-58
2024/01/23 05:37:02;;;;;;;26.98;8.50;;;;;;;-14.14;98.06;100021.28;6202638;23;20016;-58
2024/01/23 05:39:38;;;;;;;29.63;9.50;;;;;;;-14.09;98.25;100007.44;6188021;23;20073;-62
2024/01/23 05:42:10;;;;;;;34.40;9.95;;;;;;;-14.05;98.19;100008.53;6202672;23;20582;-58
2024/01/23 05:44:41;;;;;;;25.45;8.50;;;;;;;-14.01;98.19;99998.84;6187420;23;20349;-60
2024/01/23 05:47:14;;;;;;;25.23;11.00;;;;;;;-14.03;98.07;100010.41;6187904;23;20024;-59
2024/01/23 05:49:45;;;;;;;28.65;10.05;;;;;;;-14.08;98.13;99996.63;6203239;23;20016;-59
2024/01/23 05:52:16;;;;;;;22.48;8.90;;;;;;;-13.95;98.71;100011.88;6188069;23;20028;-61
2024/01/23 05:54:46;;;;;;;22.52;9.88;;;;;;;-13.89;98.64;100018.13;6202694;23;20020;-60
2024/01/23 05:57:18;;;;;;;31.02;10.43;;;;;;;-13.86;98.77;100018.34;6187729;23;20094;-61
2024/01/23 05:59:49;;;;;;;43.97;11.60;;;;;;;-13.82;99.12;99990.22;6202597;23;20043;-60
2024/01/23 06:02:19;;;;;;;24.50;9.30;;;;;;;-13.81;99.22;99986.94;6187040;23;20028;-58
2024/01/23 06:04:50;;;;;;;33.88;10.98;;;;;;;-13.79;99.43;99990.44;6202691;23;20027;-61
2024/01/23 06:07:20;;;;;;;55.90;11.55;;;;;;;-13.78;99.72;99983.00;6187909;23;20027;-59
2024/01/23 06:09:51;;;;;;;23.15;9.07;;;;;;;-13.74;99.89;99964.88;6202493;23;20516;-59
2024/01/23 06:12:23;;;;;;;34.50;9.70;;;;;;;-13.66;100.00;99960.44;6187532;23;20091;-61
2024/01/23 06:14:54;;;;;;;55.60;15.82;;;;;;;-13.66;99.94;99945.34;6202369;23;20702;-58
2024/01/23 06:17:23;;;;;;;74.30;22.05;;;;;;;-13.59;100.00;99970.19;6187750;23;20052;-60
2024/01/23 06:19:53;;;;;;;54.95;15.65;;;;;;;-13.57;100.00;99948.56;6202075;23;20405;-60
2024/01/23 06:22:24;;;;;;;93.00;21.33;;;;;;;-13.48;100.00;99953.38;6188321;23;20448;-59
2024/01/23 06:25:05;;;;;;;41.40;13.98;;;;;;;-13.41;100.00;99925.41;6202582;23;20016;-60
2024/01/23 06:27:37;;;;;;;83.95;26.90;;;;;;;-13.37;100.00;99922.38;6187345;23;20119;-61
2024/01/23 06:30:11;;;;;;;34.25;12.35;;;;;;;-13.31;100.00;99942.03;6202148;23;20028;-58
2024/01/23 06:32:42;;;;;;;43.58;13.13;;;;;;;-13.26;100.00;99908.00;6187064;23;20027;-58
2024/01/23 06:35:13;;;;;;;38.55;14.48;;;;;;;-13.22;100.00;99922.56;6188820;23;20027;-60
2024/01/23 06:37:43;;;;;;;47.90;14.10;;;;;;;-13.20;100.00;99900.94;6202252;23;20028;-57
2024/01/23 06:40:15;;;;;;;36.58;12.40;;;;;;;-13.17;100.00;99896.13;6187477;23;20035;-58
2024/01/23 06:42:47;;;;;;;39.92;11.15;;;;;;;-13.09;100.00;99900.03;6202608;23;20028;-58
2024/01/23 06:45:17;;;;;;;26.63;10.25;;;;;;;-13.08;100.00;99894.25;6187325;23;20063;-59
2024/01/23 06:47:48;;;;;;;33.75;11.45;;;;;;;-12.97;100.00;99889.97;6202354;23;20016;-58
2024/01/23 06:50:19;;;;;;;40.28;11.15;;;;;;;-12.93;100.00;99876.84;6188837;23;20132;-59
2024/01/23 06:52:49;;;;;;;36.38;12.18;;;;;;;-12.85;100.00;99879.91;6203554;23;20077;-59
2024/01/23 06:55:19;;;;;;;43.42;13.98;;;;;;;-13.00;100.00;99843.59;6190353;23;20020;-60
2024/01/23 06:57:51;;;;;;;56.08;14.70;;;;;;;-12.76;100.00;99870.47;6204427;23;20093;-59
2024/01/23 07:00:22;;;;;;;41.70;12.40;;;;;;;-12.69;100.00;99857.53;6189749;23;20486;-58
2024/01/23 07:02:53;;;;;;;49.83;12.70;;;;;;;-12.65;100.00;99859.50;6204625;23;20020;-59
2024/01/23 07:05:23;;;;;;;41.95;13.20;;;;;;;-12.54;100.00;99846.78;6189871;23;20138;-59
2024/01/23 07:07:55;;;;;;;54.40;14.85;;;;;;;-12.53;100.00;99843.50;6205335;23;20027;-58
2024/01/23 07:10:26;;;;;;;33.60;11.93;;;;;;;-12.26;100.00;99830.22;6188361;23;20423;-58
2024/01/23 07:12:58;;;;;;;30.10;8.85;;;;;;;-12.18;100.00;99846.75;6204655;23;20036;-57
2024/01/23 07:15:28;;;;;;;40.50;11.30;;;;;;;-12.06;100.00;99848.31;6189245;23;20035;-58
2024/01/23 07:17:59;;;;;;;36.03;9.48;;;;;;;-12.02;100.00;99840.22;6204508;23;20044;-58
2024/01/23 07:20:30;;;;;;;44.83;14.00;;;;;;;-11.98;100.00;99816.94;6189459;23;20071;-59
2024/01/23 07:23:00;;;;;;;48.65;14.48;;;;;;;-11.92;100.00;99827.44;6204045;23;20024;-59
2024/01/23 07:25:30;;;;;;;52.45;14.38;;;;;;;-11.82;100.00;99832.25;6190322;23;20055;-56
2024/01/23 07:28:03;;;;;;;28.15;8.80;;;;;;;-11.69;100.00;99825.50;6204122;23;20028;-57
2024/01/23 07:30:42;;;;;;;44.67;12.75;;;;;;;-11.57;100.00;99816.22;6187926;23;20487;-57
2024/01/23 07:33:12;;;;;;;23.45;7.75;;;;;;;-11.41;100.00;99821.44;6196339;23;20024;-58
2024/01/23 07:35:43;;;;;;;40.58;9.82;;;;;;;-11.70;100.00;99758.22;6203820;23;20040;-57
2024/01/23 07:38:13;;;;;;;39.10;10.82;;;;;;;-11.24;100.00;99809.03;6189477;23;20020;-59
2024/01/23 07:40:43;;;;;;;46.60;13.77;;;;;;;-11.16;100.00;99805.31;6204835;23;20444;-58
2024/01/23 07:43:17;;;;;;;42.30;11.13;;;;;;;-11.41;100.00;99733.19;6189734;23;20016;-59
2024/01/23 07:45:48;;;;;;;42.03;12.13;;;;;;;-11.00;100.00;99797.94;6204474;23;20103;-58
2024/01/23 07:48:18;;;;;;;43.00;11.20;;;;;;;-11.17;100.00;99753.16;6189177;23;20046;-58
2024/01/23 07:50:49;;;;;;;44.80;12.40;;;;;;;-10.94;100.00;99784.81;6204133;23;20028;-60
2024/01/23 07:53:19;;;;;;;38.78;10.60;;;;;;;-10.91;100.00;99787.50;6189590;23;20322;-58
2024/01/23 07:55:50;;;;;;;28.90;9.00;;;;;;;-10.83;100.00;99795.56;6204108;23;20085;-59
2024/01/23 07:58:22;;;;;;;30.27;11.27;;;;;;;-10.81;100.00;99788.94;6189303;23;20038;-58
2024/01/23 08:00:53;;;;;;;31.52;9.02;;;;;;;-10.79;100.00;99807.59;6203965;23;20054;-59
2024/01/23 08:03:24;;;;;;;21.88;8.07;;;;;;;-10.75;100.00;99789.34;6189025;23;20258;-59
2024/01/23 08:05:54;;;;;;;43.28;10.60;;;;;;;-10.71;100.00;99796.28;6204484;23;20090;-59
2024/01/23 08:08:25;;;;;;;41.65;12.02;;;;;;;-10.72;100.00;99779.41;6189980;23;20034;-58
2024/01/23 08:10:55;;;;;;;36.72;10.65;;;;;;;-10.71;100.00;99750.84;6204336;23;20016;-59
2024/01/23 08:13:27;;;;;;;37.38;9.20;;;;;;;-10.70;100.00;99768.63;6190186;23;20105;-57
2024/01/23 08:15:58;;;;;;;46.45;12.65;;;;;;;-10.64;100.00;99763.06;6203621;23;20024;-59
2024/01/23 08:18:28;;;;;;;60.60;10.85;;;;;;;-10.65;100.00;99771.44;6188045;23;20340;-57
2024/01/23 08:20:59;;;;;;;32.63;10.73;;;;;;;-10.64;100.00;99763.06;6203731;23;20024;-59
2024/01/23 08:23:29;;;;;;;37.88;11.27;;;;;;;-10.60;100.00;99754.03;6189009;23;20028;-58
2024/01/23 08:26:01;;;;;;;36.05;11.15;;;;;;;-10.57;100.00;99750.03;6203646;23;20054;-59
2024/01/23 08:28:33;;;;;;;43.38;10.95;;;;;;;-10.56;100.00;99756.81;6189375;23;20059;-58
2024/01/23 08:31:05;;;;;;;41.95;11.20;;;;;;;-10.53;100.00;99740.97;6173789;23;20709;-57
2024/01/23 08:33:36;;;;;;;29.63;8.43;;;;;;;-10.54;100.00;99755.25;6158477;23;20456;-57
2024/01/23 08:36:07;;;;;;;39.08;12.43;;;;;;;-10.51;100.00;99735.22;6173653;23;20392;-59
2024/01/23 08:38:38;;;;;;;36.80;11.45;;;;;;;-10.51;100.00;99745.31;6158177;23;20425;-59
2024/01/23 08:41:12;;;;;;;37.70;10.00;;;;;;;-10.52;100.00;99720.00;6167482;23;20031;-58
2024/01/23 08:43:44;;;;;;;32.55;9.55;;;;;;;-10.42;100.00;99739.97;6173844;23;20061;-57
2024/01/23 08:46:17;;;;;;;45.78;12.32;;;;;;;-10.45;100.00;99725.50;6159228;23;20094;-60
2024/01/23 08:48:47;;;;;;;58.67;11.90;;;;;;;-10.44;100.00;99732.28;6173852;23;20016;-58
2024/01/23 08:51:18;;;;;;;39.72;10.88;;;;;;;-10.46;100.00;99718.72;6158869;23;20024;-58
2024/01/23 08:53:49;;;;;;;46.67;12.82;;;;;;;-10.45;100.00;99715.41;6173509;23;20055;-59
2024/01/23 08:56:21;;;;;;;44.85;12.05;;;;;;;-10.40;100.00;99732.47;6158563;23;20074;-59
2024/01/23 08:58:53;;;;;;;36.90;12.77;;;;;;;-10.40;100.00;99702.19;6173291;23;20034;-59
2024/01/23 09:01:23;;;;;;;48.40;12.95;;;;;;;-10.38;100.00;99675.31;6159530;23;20025;-56
2024/01/23 09:03:54;;;;;;;42.53;11.40;;;;;;;-10.34;100.00;99712.63;6173563;23;20021;-59
2024/01/23 09:06:24;;;;;;;29.30;7.45;;;;;;;-10.27;100.00;99704.56;6158845;23;20043;-58
2024/01/23 09:08:55;;;;;;;36.95;11.05;;;;;;;-10.26;100.00;99686.09;6173363;23;20048;-57
2024/01/23 09:11:25;;;;;;;41.05;13.13;;;;;;;-10.23;100.00;99692.22;6158738;23;20024;-58
2024/01/23 09:14:02;;;;;;;41.22;10.35;;;;;;;-10.24;100.00;99682.00;6170120;23;20039;-59
2024/01/23 09:16:34;;;;;;;40.78;10.68;;;;;;;-10.19;100.00;99713.44;6158186;23;20016;-60
2024/01/23 09:19:05;;;;;;;44.90;12.07;;;;;;;-10.19;100.00;99688.19;6173132;23;20075;-57
2024/01/23 09:21:38;;;;;;;37.70;10.05;;;;;;;-10.19;100.00;99683.13;6157783;23;20024;-58
2024/01/23 09:24:09;;;;;;;47.92;12.63;;;;;;;-10.07;100.00;99709.09;6172754;23;20108;-60
2024/01/23 09:26:40;;;;;;;43.15;12.23;;;;;;;-10.04;100.00;99708.41;6158013;23;20746;-59
2024/01/23 09:29:13;;;;;;;41.60;12.43;;;;;;;-10.07;100.00;99699.00;6179834;23;20028;-58
2024/01/23 09:31:47;;;;;;;48.83;11.93;;;;;;;-10.04;100.00;99678.94;6188441;23;20051;-58
2024/01/23 09:34:17;;;;;;;26.13;8.18;;;;;;;-10.02;100.00;99672.31;6188518;23;20020;-59
2024/01/23 09:36:48;;;;;;;31.05;7.53;;;;;;;-9.95;100.00;99682.78;6202895;23;20024;-58
2024/01/23 09:39:21;;;;;;;28.70;8.55;;;;;;;-9.94;100.00;99679.47;6188403;23;20378;-58
2024/01/23 09:41:54;;;;;;;23.58;6.68;;;;;;;-9.99;100.00;99672.47;6202993;23;20326;-60
2024/01/23 09:44:26;;;;;;;30.00;9.85;;;;;;;-9.92;100.00;99673.69;6188798;23;20059;-59
2024/01/23 09:46:59;;;;;;;31.10;8.88;;;;;;;-9.89;100.00;99655.31;6202836;23;20031;-58
2024/01/23 09:49:32;;;;;;;37.58;10.98;;;;;;;-9.90;100.00;99666.22;6188766;23;20089;-58
2024/01/23 09:52:07;;;;;;;28.98;8.77;;;;;;;-9.98;100.00;99648.97;6203515;23;20051;-59
2024/01/23 09:54:40;;;;;;;38.15;10.65;;;;;;;-9.84;100.00;99651.38;6187586;23;20024;-57
2024/01/23 09:57:14;;;;;;;30.63;10.05;;;;;;;-9.88;100.00;99669.66;6201273;23;20657;-57
2024/01/23 09:59:49;;;;;;;39.00;11.13;;;;;;;-9.78;100.00;99674.47;6201880;23;20048;-59
2024/01/23 10:02:22;;;;;;;26.08;8.80;;;;;;;-9.77;100.00;99658.50;6187945;23;20321;-59
2024/01/23 10:04:56;;;;;;;43.58;9.63;;;;;;;-9.75;100.00;99677.16;6202507;23;20024;-60
2024/01/23 10:07:29;;;;;;;33.42;9.90;;;;;;;-9.83;100.00;99658.19;6188312;23;20031;-57
2024/01/23 10:10:05;;;;;;;32.30;9.73;;;;;;;-9.74;100.00;99668.78;6202642;23;20030;-57
2024/01/23 10:12:38;;;;;;;46.42;11.45;;;;;;;-9.75;100.00;99662.00;6187742;23;20032;-58
2024/01/23 10:15:16;;;;;;;22.25;6.97;;;;;;;-9.73;100.00;99645.25;6202691;23;20392;-58
2024/01/23 10:17:48;;;;;;;41.53;10.23;;;;;;;-9.68;100.00;99658.13;6187799;23;20027;-57
2024/01/23 10:20:20;;;;;;;16.38;5.95;;;;;;;-9.64;100.00;99648.25;6188098;23;20016;-57
2024/01/23 10:22:54;;;;;;;44.33;10.88;;;;;;;-9.63;100.00;99627.25;6202570;23;20043;-59
2024/01/23 10:25:30;;;;;;;23.25;7.35;;;;;;;-9.62;100.00;99639.09;6192373;23;20039;-59
2024/01/23 10:28:07;;;;;;;44.00;11.15;;;;;;;-9.58;100.00;99635.97;6206230;23;20020;-58
2024/01/23 10:30:43;;;;;;;34.08;10.25;;;;;;;-10.16;100.00;99539.28;6190484;23;20020;-58
2024/01/23 10:33:16;;;;;;;38.38;10.25;;;;;;;-9.48;100.00;99636.41;6190847;23;20028;-59
2024/01/23 10:35:58;;;;;;;28.20;7.07;;;;;;;-9.46;100.00;99619.69;6205889;23;20024;-58
2024/01/23 10:38:33;;;;;;;37.22;10.70;;;;;;;-9.45;100.00;99626.50;6190691;23;20395;-57
2024/01/23 10:41:07;;;;;;;29.40;8.35;;;;;;;-9.44;100.00;99624.03;6206122;23;20116;-56
2024/01/23 10:43:40;;;;;;;41.08;9.85;;;;;;;-9.40;100.00;99614.94;6191566;23;20028;-57
2024/01/23 10:46:13;;;;;;;40.88;9.93;;;;;;;-9.39;100.00;99631.84;6203763;23;20023;-57
2024/01/23 10:48:45;;;;;;;25.25;8.40;;;;;;;-9.37;100.00;99626.09;6206039;23;20043;-56
2024/01/23 10:51:20;;;;;;;23.35;7.05;;;;;;;-9.36;100.00;99632.00;6191515;23;20258;-59
2024/01/23 10:54:01;;;;;;;24.27;7.07;;;;;;;-9.32;100.00;99621.28;6206502;23;20027;-58
2024/01/23 10:56:43;;;;;;;41.55;8.25;;;;;;;-9.31;100.00;99610.34;6191624;23;20030;-58
2024/01/23 10:59:19;;;;;;;20.20;6.07;;;;;;;-9.26;100.00;99608.06;6191649;23;20023;-58
2024/01/23 11:01:58;;;;;;;20.30;6.82;;;;;;;-9.25;100.00;99615.75;6206060;23;20103;-58
2024/01/23 11:04:33;;;;;;;27.02;7.32;;;;;;;-9.25;100.00;99610.69;6191832;23;20117;-57
2024/01/23 11:07:15;;;;;;;27.67;7.78;;;;;;;-9.22;100.00;99620.97;6205976;23;20467;-58
2024/01/23 11:10:00;;;;;;;19.85;6.68;;;;;;;-9.19;100.00;99603.41;6191196;23;20023;-56
2024/01/23 11:12:39;;;;;;;37.83;8.98;;;;;;;-9.17;100.00;99614.47;6193313;23;20028;-56
2024/01/23 11:15:15;;;;;;;20.98;8.23;;;;;;;-9.15;100.00;99566.47;6208020;23;20026;-56
2024/01/23 11:17:48;;;;;;;35.17;9.10;;;;;;;-9.10;100.00;99599.63;6193161;23;20024;-55
2024/01/23 11:20:20;;;;;;;19.40;7.30;;;;;;;-9.07;100.00;99600.63;6193616;23;20444;-56
2024/01/23 11:22:51;;;;;;;32.55;8.18;;;;;;;-9.05;100.00;99588.06;6208366;23;20032;-57
2024/01/23 11:25:22;;;;;;;19.75;6.35;;;;;;;-9.02;100.00;99588.22;6194101;23;20020;-55
2024/01/23 11:27:54;;;;;;;19.55;7.28;;;;;;;-9.04;100.00;99561.94;6208011;23;20095;-57
2024/01/23 11:30:26;;;;;;;16.02;5.50;;;;;;;-9.03;100.00;99589.03;6192992;23;20090;-56